createdAt,value
2023-04-23T00:00:24.529Z,56.33
2023-04-23T00:01:41.097Z,57.26
2023-04-23T00:02:59.011Z,57.77
2023-04-23T00:04:13.819Z,57.40
2023-04-23T00:05:31.721Z,57.67
2023-04-23T00:06:36.998Z,57.73
2023-04-23T00:07:44.357Z,58.25
2023-04-23T00:08:51.145Z,57.88
2023-04-23T00:09:57.993Z,58.98
2023-04-23T00:11:03.161Z,58.26
2023-04-23T00:12:08.412Z,58.18
2023-04-23T00:13:12.794Z,58.34
2023-04-23T00:14:16.795Z,58.32
2023-04-23T00:15:22.394Z,59.08
2023-04-23T00:16:27.042Z,58.93
2023-04-23T00:17:34.026Z,59.38
2023-04-23T00:18:38.232Z,59.16
2023-04-23T00:19:42.384Z,59.03
2023-04-23T00:20:46.050Z,59.29
2023-04-23T00:21:50.038Z,58.56
2023-04-23T00:22:54.119Z,59.57
2023-04-23T00:23:58.714Z,59.58
2023-04-23T00:25:02.527Z,60.03
2023-04-23T00:26:09.478Z,59.87
2023-04-23T00:27:13.971Z,58.96
2023-04-23T00:28:18.740Z,58.67
2023-04-23T00:29:23.949Z,59.51
2023-04-23T00:30:35.552Z,59.51
2023-04-23T00:31:40.338Z,60.22
2023-04-23T00:32:44.997Z,59.14
2023-04-23T00:33:48.978Z,59.03
2023-04-23T00:34:53.289Z,58.85
2023-04-23T00:35:57.056Z,59.58
2023-04-23T00:37:01.130Z,60.53
2023-04-23T00:38:05.274Z,61.29
2023-04-23T00:39:10.044Z,61.09
2023-04-23T00:40:15.072Z,60.85
2023-04-23T00:41:19.920Z,60.31
2023-04-23T00:42:27.087Z,61.03
2023-04-23T00:43:32.234Z,60.61
2023-04-23T00:44:37.482Z,61.17
2023-04-23T00:45:42.066Z,61.05
2023-04-23T00:46:47.213Z,61.00
2023-04-23T00:47:51.540Z,61.33
2023-04-23T00:48:55.790Z,61.33
2023-04-23T00:50:02.173Z,61.06
2023-04-23T00:51:07.444Z,61.36
2023-04-23T00:52:11.432Z,61.50
2023-04-23T00:53:15.795Z,61.62
2023-04-23T00:54:19.830Z,61.49
2023-04-23T00:55:24.127Z,61.55
2023-04-23T00:56:28.960Z,60.85
2023-04-23T00:57:33.995Z,60.53
2023-04-23T00:58:38.583Z,60.90
2023-04-23T00:59:42.855Z,61.16
2023-04-23T01:00:49.405Z,60.96
2023-04-23T01:01:54.900Z,60.53
2023-04-23T01:03:01.952Z,60.25
2023-04-23T01:04:07.384Z,60.18
2023-04-23T01:05:12.274Z,60.38
2023-04-23T01:06:20.050Z,60.54
2023-04-23T01:07:24.511Z,61.02
2023-04-23T01:08:30.885Z,60.36
2023-04-23T01:09:35.719Z,60.38
2023-04-23T01:10:41.076Z,60.94
2023-04-23T01:11:45.293Z,61.37
2023-04-23T01:12:50.931Z,61.83
2023-04-23T01:13:56.837Z,61.08
2023-04-23T01:15:02.572Z,61.51
2023-04-23T01:16:08.358Z,62.62
2023-04-23T01:17:13.768Z,62.85
2023-04-23T01:18:20.345Z,62.96
2023-04-23T01:19:24.796Z,62.96
2023-04-23T01:20:28.727Z,62.60
2023-04-23T01:21:34.351Z,61.81
2023-04-23T01:22:38.793Z,61.67
2023-04-23T01:23:42.970Z,62.11
2023-04-23T01:24:51.402Z,62.66
2023-04-23T01:25:56.246Z,62.35
2023-04-23T01:26:59.993Z,61.90
2023-04-23T01:28:09.232Z,62.54
2023-04-23T01:29:14.152Z,62.98
2023-04-23T01:30:18.330Z,63.12
2023-04-23T01:31:23.497Z,62.65
2023-04-23T01:32:27.815Z,63.04
2023-04-23T01:33:33.112Z,63.04
2023-04-23T01:34:39.037Z,62.98
2023-04-23T01:35:45.457Z,63.26
2023-04-23T01:36:56.361Z,63.68
2023-04-23T01:38:03.660Z,63.51
2023-04-23T01:39:09.298Z,63.69
2023-04-23T01:40:13.393Z,64.11
2023-04-23T01:41:17.434Z,64.09
2023-04-23T01:42:23.271Z,64.22
2023-04-23T01:43:28.651Z,64.18
2023-04-23T01:44:32.652Z,63.89
2023-04-23T01:45:36.811Z,64.05
2023-04-23T01:46:43.359Z,64.12
2023-04-23T01:47:48.102Z,64.09
2023-04-23T01:48:52.038Z,63.21
2023-04-23T01:49:56.444Z,63.64
2023-04-23T01:51:01.307Z,63.94
2023-04-23T01:52:05.402Z,64.25
2023-04-23T01:53:09.528Z,64.79
2023-04-23T01:54:13.307Z,65.10
2023-04-23T01:55:19.316Z,64.28
2023-04-23T01:56:29.361Z,64.20
2023-04-23T01:57:33.768Z,64.78
2023-04-23T01:58:38.194Z,64.81
2023-04-23T01:59:43.420Z,63.71
2023-04-23T02:05:06.204Z,63.08
2023-04-23T02:06:11.421Z,63.62
2023-04-23T02:07:18.828Z,63.31
2023-04-23T02:08:23.556Z,63.55
2023-04-23T02:09:30.469Z,63.65
2023-04-23T02:10:34.465Z,63.47
2023-04-23T02:11:39.703Z,63.67
2023-04-23T02:12:45.379Z,63.36
2023-04-23T02:13:49.449Z,64.18
2023-04-23T02:14:54.699Z,63.69
2023-04-23T02:15:59.637Z,64.11
2023-04-23T02:17:05.273Z,64.40
2023-04-23T02:18:12.318Z,64.54
2023-04-23T02:19:17.525Z,63.45
2023-04-23T02:20:22.708Z,63.33
2023-04-23T02:21:27.819Z,63.32
2023-04-23T02:22:34.753Z,63.39
2023-04-23T02:23:39.272Z,63.90
2023-04-23T02:24:44.552Z,63.83
2023-04-23T02:25:48.347Z,65.05
2023-04-23T02:26:53.976Z,64.77
2023-04-23T02:27:57.948Z,64.83
2023-04-23T02:29:02.200Z,65.15
2023-04-23T02:30:08.645Z,65.63
2023-04-23T02:31:16.185Z,64.91
2023-04-23T02:32:20.624Z,65.21
2023-04-23T02:33:27.274Z,65.46
2023-04-23T02:34:31.913Z,64.67
2023-04-23T02:35:36.784Z,64.36
2023-04-23T02:36:41.343Z,64.65
2023-04-23T02:37:45.630Z,64.81
2023-04-23T02:38:51.299Z,64.66
2023-04-23T02:39:56.190Z,64.30
2023-04-23T02:41:00.268Z,65.12
2023-04-23T02:42:04.854Z,64.85
2023-04-23T02:43:12.727Z,64.88
2023-04-23T02:44:16.485Z,64.66
2023-04-23T02:45:20.515Z,65.46
2023-04-23T02:46:24.530Z,64.78
2023-04-23T02:47:28.787Z,64.66
2023-04-23T02:48:33.483Z,64.65
2023-04-23T02:49:47.132Z,64.64
2023-04-23T02:50:51.911Z,64.64
2023-04-23T02:51:55.950Z,65.66
2023-04-23T02:52:59.739Z,66.56
2023-04-23T02:54:04.350Z,66.39
2023-04-23T02:55:10.199Z,66.63
2023-04-23T02:56:13.889Z,67.04
2023-04-23T02:57:17.588Z,67.32
2023-04-23T02:58:21.690Z,66.43
2023-04-23T02:59:27.414Z,66.26
2023-04-23T03:00:33.274Z,66.62
2023-04-23T03:01:39.646Z,67.28
2023-04-23T03:02:43.732Z,67.52
2023-04-23T03:03:50.856Z,67.66
2023-04-23T03:04:55.626Z,68.09
2023-04-23T03:06:01.536Z,67.81
2023-04-23T03:07:05.632Z,67.70
2023-04-23T03:08:09.848Z,67.95
2023-04-23T03:09:14.050Z,67.69
2023-04-23T03:10:21.380Z,67.73
2023-04-23T03:11:25.496Z,67.98
2023-04-23T03:12:29.192Z,68.13
2023-04-23T03:13:33.229Z,67.86
2023-04-23T03:14:36.880Z,68.19
2023-04-23T03:15:41.474Z,67.71
2023-04-23T03:16:45.290Z,68.09
2023-04-23T03:17:51.447Z,67.96
2023-04-23T03:18:57.412Z,67.55
2023-04-23T03:20:04.654Z,67.25
2023-04-23T03:21:08.531Z,66.90
2023-04-23T03:22:12.331Z,67.09
2023-04-23T03:23:19.164Z,67.30
2023-04-23T03:24:23.060Z,66.74
2023-04-23T03:25:27.317Z,66.36
2023-04-23T03:26:32.133Z,67.01
2023-04-23T03:27:37.856Z,67.14
2023-04-23T03:28:43.307Z,67.09
2023-04-23T03:29:47.153Z,67.09
2023-04-23T03:30:51.296Z,67.37
2023-04-23T03:31:55.549Z,67.48
2023-04-23T03:33:01.625Z,67.83
2023-04-23T03:34:05.547Z,66.95
2023-04-23T03:35:09.966Z,66.44
2023-04-23T03:36:13.594Z,67.30
2023-04-23T03:37:17.554Z,67.25
2023-04-23T03:38:21.276Z,67.58
2023-04-23T03:39:24.944Z,67.59
2023-04-23T03:40:28.734Z,68.38
2023-04-23T03:41:32.428Z,67.93
2023-04-23T03:42:36.220Z,67.65
2023-04-23T03:43:39.785Z,67.26
2023-04-23T03:44:43.577Z,67.40
2023-04-23T03:45:47.578Z,67.64
2023-04-23T03:46:52.428Z,66.87
2023-04-23T03:47:56.560Z,66.29
2023-04-23T03:49:00.277Z,66.53
2023-04-23T03:50:04.933Z,66.67
2023-04-23T03:51:08.790Z,67.37
2023-04-23T03:52:12.810Z,67.82
2023-04-23T03:53:18.001Z,67.27
2023-04-23T03:54:23.489Z,67.09
2023-04-23T03:55:29.936Z,67.48
2023-04-23T03:56:33.950Z,67.00
2023-04-23T03:57:41.320Z,66.90
2023-04-23T03:58:45.355Z,67.81
2023-04-23T03:59:49.199Z,68.17
2023-04-23T04:00:53.344Z,68.29
2023-04-23T04:01:57.144Z,67.98
2023-04-23T04:03:02.313Z,67.53
2023-04-23T04:04:06.496Z,67.82
2023-04-23T04:05:13.734Z,68.06
2023-04-23T04:06:17.806Z,67.46
2023-04-23T04:07:22.296Z,67.95
2023-04-23T04:08:27.464Z,68.23
2023-04-23T04:09:31.905Z,68.54
2023-04-23T04:10:35.725Z,67.88
2023-04-23T04:11:39.959Z,68.89
2023-04-23T04:12:46.484Z,68.67
2023-04-23T04:13:50.484Z,67.80
2023-04-23T04:14:55.019Z,67.69
2023-04-23T04:15:58.923Z,67.28
2023-04-23T04:17:02.787Z,67.67
2023-04-23T04:18:07.119Z,67.25
2023-04-23T04:19:11.254Z,67.67
2023-04-23T04:20:15.198Z,67.62
2023-04-23T04:21:19.491Z,68.15
2023-04-23T04:22:24.284Z,68.01
2023-04-23T04:23:29.118Z,68.45
2023-04-23T04:24:33.494Z,68.86
2023-04-23T04:25:40.498Z,68.96
2023-04-23T04:26:45.707Z,68.93
2023-04-23T04:27:49.531Z,69.01
2023-04-23T04:28:53.471Z,68.59
2023-04-23T04:29:57.302Z,68.92
2023-04-23T04:31:03.401Z,69.40
2023-04-23T04:32:10.159Z,69.01
2023-04-23T04:33:15.551Z,69.12
2023-04-23T04:34:20.497Z,69.08
2023-04-23T04:35:27.577Z,69.36
2023-04-23T04:36:32.099Z,69.61
2023-04-23T04:37:36.930Z,69.29
2023-04-23T04:38:42.004Z,68.49
2023-04-23T04:39:45.824Z,68.20
2023-04-23T04:40:50.673Z,68.04
2023-04-23T04:41:54.902Z,68.07
2023-04-23T04:43:00.421Z,67.95
2023-04-23T04:44:04.593Z,68.29
2023-04-23T04:45:09.206Z,67.47
2023-04-23T04:46:13.031Z,67.24
2023-04-23T04:47:17.390Z,67.35
2023-04-23T04:48:22.131Z,67.25
2023-04-23T04:49:27.095Z,67.46
2023-04-23T04:50:34.136Z,67.28
2023-04-23T04:51:39.754Z,67.14
2023-04-23T04:52:43.761Z,67.49
2023-04-23T04:53:47.908Z,67.39
2023-04-23T04:54:51.831Z,67.86
2023-04-23T04:55:55.654Z,67.12
2023-04-23T04:56:59.254Z,67.49
2023-04-23T04:58:03.316Z,67.11
2023-04-23T04:59:06.953Z,66.63
2023-04-23T05:00:31.053Z,66.83
2023-04-23T05:01:37.401Z,66.57
2023-04-23T05:02:41.632Z,67.17
2023-04-23T05:03:46.206Z,67.18
2023-04-23T05:04:50.916Z,66.55
2023-04-23T05:05:59.158Z,66.56
2023-04-23T05:07:04.020Z,66.52
2023-04-23T05:08:08.807Z,66.21
2023-04-23T05:09:12.770Z,66.45
2023-04-23T05:10:16.904Z,66.44
2023-04-23T05:11:21.299Z,66.96
2023-04-23T05:12:25.671Z,66.70
2023-04-23T05:13:30.009Z,66.79
2023-04-23T05:14:34.444Z,66.35
2023-04-23T05:15:38.656Z,65.60
2023-04-23T05:16:42.686Z,65.49
2023-04-23T05:17:46.610Z,65.46
2023-04-23T05:18:50.737Z,65.43
2023-04-23T05:19:54.639Z,64.88
2023-04-23T05:20:58.844Z,64.37
2023-04-23T05:22:03.864Z,63.82
2023-04-23T05:23:07.829Z,63.53
2023-04-23T05:24:11.406Z,62.85
2023-04-23T05:25:15.755Z,62.35
2023-04-23T05:26:21.066Z,62.05
2023-04-23T05:27:25.170Z,61.40
2023-04-23T05:28:31.125Z,60.13
2023-04-23T05:29:34.789Z,58.16
2023-04-23T05:30:39.818Z,57.42
2023-04-23T05:31:43.444Z,57.68
2023-04-23T05:32:47.637Z,55.41
2023-04-23T05:33:51.800Z,56.18
2023-04-23T05:34:56.256Z,55.27
2023-04-23T05:36:07.455Z,53.48
2023-04-23T05:37:11.402Z,53.45
2023-04-23T05:38:15.310Z,53.95
2023-04-23T05:39:19.184Z,52.64
2023-04-23T05:40:23.197Z,53.31
2023-04-23T05:41:27.458Z,51.42
2023-04-23T05:42:32.418Z,50.87
2023-04-23T05:43:36.434Z,51.28
2023-04-23T05:44:42.300Z,50.28
2023-04-23T05:45:46.628Z,49.80
2023-04-23T05:46:50.570Z,49.94
2023-04-23T05:47:54.443Z,49.04
2023-04-23T05:48:58.141Z,49.65
2023-04-23T05:50:02.728Z,49.19
2023-04-23T05:51:07.346Z,47.81
2023-04-23T05:52:12.372Z,47.24
2023-04-23T05:53:16.220Z,46.60
2023-04-23T05:54:19.967Z,46.13
2023-04-23T05:55:24.548Z,47.00
2023-04-23T05:56:28.371Z,45.70
2023-04-23T05:57:32.238Z,45.49
2023-04-23T05:58:35.915Z,45.57
2023-04-23T05:59:40.029Z,45.32
2023-04-23T06:00:45.333Z,43.94
2023-04-23T06:01:50.578Z,43.10
2023-04-23T06:02:55.133Z,42.91
2023-04-23T06:03:59.175Z,43.10
2023-04-23T06:05:03.367Z,42.80
2023-04-23T06:06:11.492Z,42.98
2023-04-23T06:07:15.608Z,42.98
2023-04-23T06:08:20.876Z,42.72
2023-04-23T06:09:24.922Z,42.27
2023-04-23T06:10:29.608Z,41.08
2023-04-23T06:11:33.608Z,41.25
2023-04-23T06:12:42.368Z,40.92
2023-04-23T06:13:46.608Z,40.93
2023-04-23T06:14:52.298Z,40.87
2023-04-23T06:15:56.077Z,41.26
2023-04-23T06:17:00.031Z,40.15
2023-04-23T06:18:03.895Z,40.13
2023-04-23T06:19:08.056Z,40.24
2023-04-23T06:20:12.208Z,39.78
2023-04-23T06:21:18.040Z,38.80
2023-04-23T06:22:23.564Z,39.56
2023-04-23T06:23:27.240Z,38.42
2023-04-23T06:24:32.180Z,39.03
2023-04-23T06:25:35.937Z,38.48
2023-04-23T06:26:40.854Z,37.46
2023-04-23T06:27:44.582Z,36.92
2023-04-23T06:28:49.113Z,36.92
2023-04-23T06:29:57.921Z,35.72
2023-04-23T06:31:02.956Z,34.91
2023-04-23T06:32:06.864Z,34.54
2023-04-23T06:33:11.249Z,34.84
2023-04-23T06:34:16.748Z,34.40
2023-04-23T06:35:21.760Z,34.50
2023-04-23T06:36:26.682Z,34.73
2023-04-23T06:37:33.783Z,33.87
2023-04-23T06:38:38.660Z,33.68
2023-04-23T06:39:42.386Z,33.73
2023-04-23T06:40:46.569Z,33.48
2023-04-23T06:41:54.516Z,33.71
2023-04-23T06:42:58.646Z,33.25
2023-04-23T06:44:02.740Z,33.96
2023-04-23T06:45:07.758Z,34.38
2023-04-23T06:46:11.553Z,34.57
2023-04-23T06:47:15.276Z,34.84
2023-04-23T06:48:19.385Z,34.53
2023-04-23T06:49:23.366Z,33.89
2023-04-23T06:50:33.450Z,33.63
2023-04-23T06:51:37.489Z,32.93
2023-04-23T06:52:41.972Z,32.66
2023-04-23T06:53:47.333Z,32.74
2023-04-23T06:54:52.071Z,32.91
2023-04-23T06:55:55.907Z,33.49
2023-04-23T06:56:59.786Z,32.90
2023-04-23T06:58:03.878Z,31.47
2023-04-23T06:59:09.240Z,32.01
2023-04-23T07:00:13.833Z,31.48
2023-04-23T07:01:23.171Z,31.05
2023-04-23T07:02:28.243Z,31.35
2023-04-23T07:03:32.302Z,30.63
2023-04-23T07:04:37.265Z,30.89
2023-04-23T07:05:40.981Z,30.47
2023-04-23T07:06:45.317Z,30.21
2023-04-23T07:07:49.607Z,29.30
2023-04-23T07:08:54.133Z,29.99
2023-04-23T07:09:57.941Z,29.57
2023-04-23T07:11:02.823Z,29.52
2023-04-23T07:12:08.390Z,28.95
2023-04-23T07:13:12.649Z,28.70
2023-04-23T07:14:17.039Z,28.65
2023-04-23T07:15:20.878Z,26.74
2023-04-23T07:16:25.895Z,27.01
2023-04-23T07:17:29.874Z,26.31
2023-04-23T07:18:33.899Z,26.57
2023-04-23T07:19:38.844Z,26.26
2023-04-23T07:20:42.917Z,25.88
2023-04-23T07:21:49.573Z,25.61
2023-04-23T07:22:54.014Z,25.17
2023-04-23T07:24:18.641Z,24.67
2023-04-23T07:25:24.747Z,25.18
2023-04-23T07:26:28.554Z,24.63
2023-04-23T07:27:32.535Z,24.74
2023-04-23T07:28:39.359Z,24.06
2023-04-23T07:29:49.906Z,24.25
2023-04-23T07:30:53.610Z,25.23
2023-04-23T07:31:57.621Z,24.32
2023-04-23T07:33:01.489Z,24.68
2023-04-23T07:34:05.246Z,25.12
2023-04-23T07:35:10.839Z,24.10
2023-04-23T07:36:14.538Z,24.15
2023-04-23T07:37:18.274Z,23.39
2023-04-23T07:38:21.909Z,23.12
2023-04-23T07:39:25.703Z,22.40
2023-04-23T07:40:29.589Z,22.09
2023-04-23T07:41:33.910Z,21.95
2023-04-23T07:42:37.842Z,21.35
2023-04-23T07:43:42.992Z,20.78
2023-04-23T07:44:46.708Z,20.89
2023-04-23T07:45:50.719Z,20.47
2023-04-23T07:46:54.662Z,19.80
2023-04-23T07:48:02.434Z,19.99
2023-04-23T07:49:08.063Z,20.03
2023-04-23T07:50:12.117Z,19.75
2023-04-23T07:51:16.676Z,19.31
2023-04-23T07:52:21.149Z,20.06
2023-04-23T07:53:28.638Z,20.53
2023-04-23T07:54:33.516Z,20.67
2023-04-23T07:55:38.436Z,20.26
2023-04-23T07:56:47.953Z,19.94
2023-04-23T07:57:55.862Z,19.61
2023-04-23T07:59:01.046Z,19.48
2023-04-23T08:00:09.637Z,18.82
2023-04-23T08:01:22.588Z,18.59
2023-04-23T08:02:28.003Z,18.93
2023-04-23T08:03:33.063Z,18.55
2023-04-23T08:04:37.370Z,18.73
2023-04-23T08:05:44.497Z,18.17
2023-04-23T08:06:52.415Z,18.75
2023-04-23T08:07:58.980Z,17.76
2023-04-23T08:09:07.020Z,17.97
2023-04-23T08:10:11.142Z,17.38
2023-04-23T08:11:15.750Z,17.40
2023-04-23T08:12:21.745Z,17.33
2023-04-23T08:13:27.239Z,17.21
2023-04-23T08:14:31.943Z,17.27
2023-04-23T08:15:36.447Z,17.44
2023-04-23T08:16:40.860Z,17.44
2023-04-23T08:17:44.606Z,17.61
2023-04-23T08:19:01.667Z,18.01
2023-04-23T08:20:09.262Z,18.08
2023-04-23T08:21:14.085Z,18.01
2023-04-23T08:22:18.476Z,17.94
2023-04-23T08:23:23.565Z,17.66
2023-04-23T08:24:27.586Z,18.31
2023-04-23T08:25:32.862Z,18.34
2023-04-23T08:26:36.838Z,18.37
2023-04-23T08:27:40.869Z,18.11
2023-04-23T08:28:46.686Z,18.51
2023-04-23T08:29:50.819Z,18.83
2023-04-23T08:30:54.885Z,19.04
2023-04-23T08:31:59.309Z,18.46
2023-04-23T08:33:03.146Z,19.00
2023-04-23T08:34:07.390Z,18.57
2023-04-23T08:35:11.695Z,18.60
2023-04-23T08:36:15.702Z,18.06
2023-04-23T08:37:29.848Z,18.55
2023-04-23T08:38:34.715Z,18.53
2023-04-23T08:39:39.010Z,19.34
2023-04-23T08:40:46.686Z,19.52
2023-04-23T08:41:56.490Z,19.14
2023-04-23T08:43:11.184Z,18.56
2023-04-23T08:44:23.562Z,18.11
2023-04-23T08:45:29.127Z,18.04
2023-04-23T08:46:36.831Z,18.04
2023-04-23T08:47:46.030Z,18.22
2023-04-23T08:48:53.621Z,18.61
2023-04-23T08:50:01.127Z,18.11
2023-04-23T08:51:09.795Z,17.63
2023-04-23T08:52:23.194Z,18.03
2023-04-23T08:53:28.322Z,18.08
2023-04-23T08:54:38.123Z,17.93
2023-04-23T08:55:42.285Z,17.88
2023-04-23T08:56:47.939Z,17.94
2023-04-23T08:57:52.200Z,18.41
2023-04-23T08:58:57.229Z,19.05
2023-04-23T09:00:06.615Z,19.12
2023-04-23T09:01:11.512Z,19.50
2023-04-23T09:02:18.039Z,19.93
2023-04-23T09:03:28.946Z,19.97
2023-04-23T09:04:39.434Z,20.03
2023-04-23T09:05:46.151Z,19.77
2023-04-23T09:06:50.513Z,20.37
2023-04-23T09:07:55.186Z,20.13
2023-04-23T09:09:01.121Z,20.42
2023-04-23T09:10:07.489Z,20.62
2023-04-23T09:11:12.090Z,20.80
2023-04-23T09:12:17.272Z,20.58
2023-04-23T09:13:23.248Z,20.85
2023-04-23T09:14:27.632Z,21.05
2023-04-23T09:15:32.521Z,21.34
2023-04-23T09:16:42.780Z,21.15
2023-04-23T09:17:47.895Z,20.99
2023-04-23T09:18:52.752Z,21.61
2023-04-23T09:19:56.873Z,22.40
2023-04-23T09:21:04.282Z,22.22
2023-04-23T09:22:09.383Z,22.57
2023-04-23T09:23:16.359Z,22.34
2023-04-23T09:24:26.025Z,22.64
2023-04-23T09:25:30.572Z,22.17
2023-04-23T09:26:34.581Z,22.69
2023-04-23T09:27:42.211Z,22.72
2023-04-23T09:28:53.552Z,22.75
2023-04-23T09:29:57.909Z,23.09
2023-04-23T09:31:02.512Z,23.07
2023-04-23T09:32:10.622Z,23.86
2023-04-23T09:33:17.836Z,23.37
2023-04-23T09:34:24.295Z,23.39
2023-04-23T09:35:38.000Z,24.28
2023-04-23T09:36:46.338Z,24.05
2023-04-23T09:37:53.576Z,23.29
2023-04-23T09:39:12.926Z,23.49
2023-04-23T09:40:27.525Z,24.08
2023-04-23T09:41:31.503Z,23.94
2023-04-23T09:42:37.731Z,23.89
2023-04-23T09:43:50.279Z,24.14
2023-04-23T09:45:00.485Z,24.39
2023-04-23T09:46:06.490Z,24.27
2023-04-23T09:47:19.145Z,24.03
2023-04-23T09:48:25.412Z,24.45
2023-04-23T09:49:49.859Z,24.92
2023-04-23T09:51:04.375Z,25.06
2023-04-23T09:52:15.042Z,25.19
2023-04-23T09:53:27.799Z,25.44
2023-04-23T09:54:37.295Z,25.14
2023-04-23T09:55:43.902Z,24.71
2023-04-23T09:57:01.048Z,24.76
2023-04-23T09:58:16.851Z,25.24
2023-04-23T09:59:45.964Z,24.91
2023-04-23T10:01:06.493Z,25.38
2023-04-23T10:02:16.204Z,25.25
2023-04-23T10:03:36.247Z,24.84
2023-04-23T10:04:43.045Z,24.84
2023-04-23T10:06:00.636Z,24.94
2023-04-23T10:08:28.625Z,24.91
2023-04-23T10:09:33.453Z,24.58
2023-04-23T10:12:20.720Z,24.23
2023-04-23T10:13:40.089Z,24.51
2023-04-23T10:14:54.907Z,24.55
2023-04-23T10:16:18.641Z,24.54
2023-04-23T10:17:29.482Z,24.65
2023-04-23T10:18:38.142Z,24.57
2023-04-23T10:20:02.667Z,24.24
2023-04-23T10:21:08.564Z,23.86
2023-04-23T10:22:19.854Z,23.73
2023-04-23T10:23:44.944Z,23.46
2023-04-23T10:24:57.357Z,23.79
2023-04-23T10:26:05.253Z,23.88
2023-04-23T10:27:28.470Z,23.72
2023-04-23T10:28:41.168Z,23.79
2023-04-23T10:29:46.010Z,23.75
2023-04-23T10:30:51.040Z,23.97
2023-04-23T10:31:57.996Z,23.80
2023-04-23T10:33:06.093Z,24.35
2023-04-23T10:34:13.420Z,23.92
2023-04-23T10:35:17.249Z,23.73
2023-04-23T10:36:25.916Z,23.47
2023-04-23T10:37:31.292Z,23.30
2023-04-23T10:40:17.422Z,23.94
2023-04-23T10:41:45.756Z,23.75
2023-04-23T10:42:54.271Z,23.84
2023-04-23T10:44:01.165Z,24.21
2023-04-23T10:45:23.983Z,24.25
2023-04-23T10:46:34.827Z,24.21
2023-04-23T10:47:49.029Z,24.35
2023-04-23T10:49:16.501Z,24.27
2023-04-23T10:50:21.849Z,24.28
2023-04-23T10:52:47.086Z,23.98
2023-04-23T10:53:56.890Z,23.75
2023-04-23T10:55:03.823Z,23.63
2023-04-23T10:56:10.567Z,23.89
2023-04-23T10:57:14.887Z,23.75
2023-04-23T10:58:18.689Z,24.15
2023-04-23T10:59:23.101Z,24.02
2023-04-23T11:01:09.126Z,24.33
2023-04-23T11:02:19.563Z,24.43
2023-04-23T11:03:46.545Z,24.27
2023-04-23T11:05:01.668Z,24.25
2023-04-23T11:06:21.319Z,23.77
2023-04-23T11:07:42.627Z,23.61
2023-04-23T11:08:57.787Z,23.66
2023-04-23T11:10:17.203Z,23.81
2023-04-23T11:11:55.883Z,23.92
2023-04-23T11:14:56.517Z,24.25
2023-04-23T11:16:32.596Z,23.67
2023-04-23T11:17:42.627Z,23.90
2023-04-23T11:19:11.534Z,23.94
2023-04-23T11:20:30.678Z,23.92
2023-04-23T11:22:00.148Z,23.87
2023-04-23T11:23:35.371Z,23.58
2023-04-23T11:24:45.237Z,23.76
2023-04-23T11:25:50.890Z,24.16
2023-04-23T11:26:56.333Z,24.22
2023-04-23T11:28:01.569Z,23.76
2023-04-23T11:29:25.488Z,23.76
2023-04-23T11:31:06.663Z,23.99
2023-04-23T11:32:28.482Z,23.55
2023-04-23T11:33:41.928Z,23.64
2023-04-23T11:34:53.655Z,23.47
2023-04-23T11:36:01.056Z,23.37
2023-04-23T11:37:21.704Z,23.32
2023-04-23T11:38:41.730Z,23.09
2023-04-23T11:40:08.834Z,23.65
2023-04-23T11:42:09.594Z,23.30
2023-04-23T11:43:00.398Z,23.26
2023-04-23T11:44:06.924Z,23.57
2023-04-23T11:45:45.788Z,23.50
2023-04-23T11:46:57.852Z,23.72
2023-04-23T11:48:11.543Z,24.02
2023-04-23T11:49:21.639Z,23.67
2023-04-23T11:50:40.644Z,24.10
2023-04-23T11:51:52.787Z,23.99
2023-04-23T11:52:59.001Z,23.85
2023-04-23T11:54:05.430Z,24.04
2023-04-23T11:55:12.911Z,24.00
2023-04-23T11:56:20.772Z,24.68
2023-04-23T11:57:27.160Z,24.48
2023-04-23T11:58:39.456Z,24.37
2023-04-23T11:59:46.982Z,23.86
2023-04-23T12:01:04.232Z,23.99
2023-04-23T12:02:13.524Z,24.17
2023-04-23T12:03:21.018Z,24.03
2023-04-23T12:04:31.866Z,24.12
2023-04-23T12:05:41.223Z,24.07
2023-04-23T12:06:49.603Z,24.09
2023-04-23T12:07:53.615Z,24.00
2023-04-23T12:08:57.388Z,24.03
2023-04-23T12:10:01.100Z,23.91
2023-04-23T12:11:06.491Z,24.11
2023-04-23T12:12:11.347Z,24.04
2023-04-23T12:13:27.473Z,24.12
2023-04-23T12:14:31.543Z,23.71
2023-04-23T12:15:50.405Z,24.24
2023-04-23T12:17:09.920Z,23.98
2023-04-23T12:18:22.371Z,24.13
2023-04-23T12:19:32.801Z,24.24
2023-04-23T12:20:40.958Z,24.11
2023-04-23T12:21:57.646Z,23.97
2023-04-23T12:23:10.423Z,24.12
2023-04-23T12:24:17.719Z,24.29
2023-04-23T12:25:27.488Z,24.42
2023-04-23T12:26:44.611Z,24.30
2023-04-23T12:28:01.483Z,24.37
2023-04-23T12:29:08.567Z,24.16
2023-04-23T12:30:20.144Z,23.95
2023-04-23T12:31:37.221Z,23.86
2023-04-23T12:32:48.041Z,24.11
2023-04-23T12:34:04.511Z,24.28
2023-04-23T12:35:14.799Z,23.98
2023-04-23T12:36:31.885Z,23.66
2023-04-23T12:37:45.990Z,24.18
2023-04-23T12:38:51.080Z,23.98
2023-04-23T12:40:02.259Z,24.33
2023-04-23T12:41:06.450Z,23.99
2023-04-23T12:42:13.988Z,24.04
2023-04-23T12:43:22.275Z,23.58
2023-04-23T12:44:30.403Z,23.86
2023-04-23T12:45:47.085Z,23.62
2023-04-23T12:47:28.184Z,24.05
2023-04-23T12:48:35.209Z,23.48
2023-04-23T12:49:45.979Z,23.88
2023-04-23T12:51:03.435Z,23.62
2023-04-23T12:52:14.912Z,23.47
2023-04-23T12:53:25.255Z,23.83
2023-04-23T12:54:39.139Z,23.54
2023-04-23T12:55:49.715Z,23.38
2023-04-23T12:57:00.918Z,23.58
2023-04-23T12:58:12.770Z,23.27
2023-04-23T12:59:19.642Z,23.31
2023-04-23T13:00:26.097Z,23.35
2023-04-23T13:01:33.985Z,23.01
2023-04-23T13:02:44.838Z,23.04
2023-04-23T13:03:50.626Z,22.93
2023-04-23T13:05:01.342Z,23.10
2023-04-23T13:06:15.248Z,22.94
2023-04-23T13:07:28.492Z,22.87
2023-04-23T13:08:35.563Z,22.95
2023-04-23T13:09:42.544Z,23.23
2023-04-23T13:10:57.615Z,23.05
2023-04-23T13:12:13.906Z,23.14
2023-04-23T13:13:26.791Z,23.27
2023-04-23T13:14:33.641Z,23.29
2023-04-23T13:15:41.014Z,23.29
2023-04-23T13:16:48.366Z,23.30
2023-04-23T13:17:54.708Z,23.42
2023-04-23T13:19:00.211Z,23.27
2023-04-23T13:20:31.824Z,22.98
2023-04-23T13:21:47.316Z,23.30
2023-04-23T13:22:51.300Z,23.07
2023-04-23T13:23:59.387Z,23.50
2023-04-23T13:25:06.580Z,23.03
2023-04-23T13:26:16.336Z,23.45
2023-04-23T13:27:33.322Z,23.23
2023-04-23T13:28:40.584Z,23.40
2023-04-23T13:29:47.247Z,23.27
2023-04-23T13:30:55.012Z,23.20
2023-04-23T13:32:04.757Z,22.86
2023-04-23T13:33:08.604Z,23.23
2023-04-23T13:34:12.173Z,23.02
2023-04-23T13:35:18.339Z,23.32
2023-04-23T13:36:22.783Z,23.42
2023-04-23T13:37:27.550Z,23.57
2023-04-23T13:38:31.766Z,23.47
2023-04-23T13:39:41.485Z,23.17
2023-04-23T13:40:45.888Z,22.97
2023-04-23T13:41:59.230Z,22.96
2023-04-23T13:43:06.264Z,22.90
2023-04-23T13:44:10.151Z,23.02
2023-04-23T13:45:14.866Z,23.07
2023-04-23T13:46:19.909Z,22.92
2023-04-23T13:47:24.900Z,23.15
2023-04-23T13:48:31.293Z,23.19
2023-04-23T13:49:35.140Z,22.96
2023-04-23T13:50:39.176Z,22.96
2023-04-23T13:51:44.501Z,22.77
2023-04-23T13:52:48.401Z,23.07
2023-04-23T13:53:55.173Z,22.63
2023-04-23T13:55:00.352Z,22.71
2023-04-23T13:56:04.188Z,22.82
2023-04-23T13:57:08.300Z,22.93
2023-04-23T13:58:12.862Z,23.34
2023-04-23T13:59:20.084Z,23.33
2023-04-23T14:00:27.820Z,23.23
2023-04-23T14:01:31.576Z,22.85
2023-04-23T14:02:37.653Z,23.17
2023-04-23T14:03:42.583Z,23.17
2023-04-23T14:04:47.134Z,23.05
2023-04-23T14:05:50.938Z,23.08
2023-04-23T14:07:01.474Z,23.07
2023-04-23T14:08:09.865Z,22.86
2023-04-23T14:09:17.129Z,23.08
2023-04-23T14:10:26.106Z,23.01
2023-04-23T14:11:35.482Z,23.09
2023-04-23T14:12:45.979Z,22.93
2023-04-23T14:14:05.546Z,22.90
2023-04-23T14:15:11.545Z,22.86
2023-04-23T14:16:30.286Z,23.34
2023-04-23T14:17:37.672Z,22.80
2023-04-23T14:18:55.370Z,22.92
2023-04-23T14:20:08.682Z,22.90
2023-04-23T14:21:15.646Z,22.75
2023-04-23T14:22:22.888Z,22.71
2023-04-23T14:24:10.198Z,22.31
2023-04-23T14:25:53.995Z,22.24
2023-04-23T14:27:03.834Z,22.15
2023-04-23T14:28:40.876Z,22.06
2023-04-23T14:30:10.458Z,22.50
2023-04-23T14:31:15.362Z,22.46
2023-04-23T14:32:20.618Z,22.62
2023-04-23T14:33:27.029Z,22.83
2023-04-23T14:34:32.565Z,22.58
2023-04-23T14:36:49.534Z,22.98
2023-04-23T14:38:08.762Z,22.67
2023-04-23T14:39:32.386Z,23.20
2023-04-23T14:40:39.145Z,22.95
2023-04-23T14:41:55.557Z,22.72
2023-04-23T14:43:15.116Z,22.88